sensor_id;sensor_type;location;lat;lon;timestamp;P1;durP1;ratioP1;P2;durP2;ratioP2
27632;SDS011;15046;50.930;13.334;2023-07-31T00:00:30;6.05;;;2.05;;
27632;SDS011;15046;50.930;13.334;2023-07-31T00:02:56;6.50;;;2.25;;
27632;SDS011;15046;50.930;13.334;2023-07-31T00:05:21;5.13;;;2.17;;
27632;SDS011;15046;50.930;13.334;2023-07-31T00:07:47;5.00;;;2.05;;
27632;SDS011;15046;50.930;13.334;2023-07-31T00:10:13;7.35;;;1.90;;
27632;SDS011;15046;50.930;13.334;2023-07-31T00:12:40;7.47;;;2.38;;
27632;SDS011;15046;50.930;13.334;2023-07-31T00:15:08;7.57;;;1.80;;
27632;SDS011;15046;50.930;13.334;2023-07-31T00:17:34;6.95;;;2.05;;
27632;SDS011;15046;50.930;13.334;2023-07-31T00:20:00;8.32;;;2.15;;
27632;SDS011;15046;50.930;13.334;2023-07-31T00:22:25;9.52;;;3.03;;
27632;SDS011;15046;50.930;13.334;2023-07-31T00:24:51;8.07;;;2.40;;
27632;SDS011;15046;50.930;13.334;2023-07-31T00:27:17;6.20;;;2.38;;
27632;SDS011;15046;50.930;13.334;2023-07-31T00:29:43;8.55;;;2.25;;
27632;SDS011;15046;50.930;13.334;2023-07-31T00:32:09;5.38;;;2.15;;
27632;SDS011;15046;50.930;13.334;2023-07-31T00:34:34;6.22;;;2.05;;
27632;SDS011;15046;50.930;13.334;2023-07-31T00:37:00;5.95;;;2.30;;
27632;SDS011;15046;50.930;13.334;2023-07-31T00:39:26;7.63;;;2.40;;
27632;SDS011;15046;50.930;13.334;2023-07-31T00:41:52;7.43;;;2.15;;
27632;SDS011;15046;50.930;13.334;2023-07-31T00:44:18;7.50;;;2.38;;
27632;SDS011;15046;50.930;13.334;2023-07-31T00:46:44;5.95;;;2.20;;
27632;SDS011;15046;50.930;13.334;2023-07-31T00:49:10;6.28;;;1.63;;
27632;SDS011;15046;50.930;13.334;2023-07-31T00:51:37;6.72;;;2.40;;
27632;SDS011;15046;50.930;13.334;2023-07-31T00:54:02;6.97;;;2.00;;
27632;SDS011;15046;50.930;13.334;2023-07-31T00:56:28;8.75;;;2.30;;
27632;SDS011;15046;50.930;13.334;2023-07-31T00:58:55;6.00;;;1.88;;
27632;SDS011;15046;50.930;13.334;2023-07-31T01:01:21;7.13;;;2.05;;
27632;SDS011;15046;50.930;13.334;2023-07-31T01:03:47;7.00;;;2.55;;
27632;SDS011;15046;50.930;13.334;2023-07-31T01:06:26;7.40;;;2.72;;
27632;SDS011;15046;50.930;13.334;2023-07-31T01:09:20;4.97;;;2.03;;
27632;SDS011;15046;50.930;13.334;2023-07-31T01:12:07;8.70;;;2.05;;
27632;SDS011;15046;50.930;13.334;2023-07-31T01:14:34;10.43;;;2.78;;
27632;SDS011;15046;50.930;13.334;2023-07-31T01:17:00;7.35;;;2.00;;
27632;SDS011;15046;50.930;13.334;2023-07-31T01:19:26;7.57;;;2.00;;
27632;SDS011;15046;50.930;13.334;2023-07-31T01:26:56;5.22;;;1.70;;
27632;SDS011;15046;50.930;13.334;2023-07-31T01:29:32;6.65;;;2.15;;
27632;SDS011;15046;50.930;13.334;2023-07-31T01:32:01;5.32;;;2.05;;
27632;SDS011;15046;50.930;13.334;2023-07-31T01:34:29;6.93;;;2.40;;
27632;SDS011;15046;50.930;13.334;2023-07-31T01:36:55;7.28;;;1.90;;
27632;SDS011;15046;50.930;13.334;2023-07-31T01:39:23;8.48;;;2.65;;
27632;SDS011;15046;50.930;13.334;2023-07-31T01:41:49;6.57;;;1.70;;
27632;SDS011;15046;50.930;13.334;2023-07-31T01:44:15;4.10;;;1.90;;
27632;SDS011;15046;50.930;13.334;2023-07-31T01:46:40;6.43;;;2.35;;
27632;SDS011;15046;50.930;13.334;2023-07-31T01:49:06;6.18;;;2.17;;
27632;SDS011;15046;50.930;13.334;2023-07-31T01:51:32;10.32;;;1.92;;
27632;SDS011;15046;50.930;13.334;2023-07-31T01:53:59;6.60;;;2.00;;
27632;SDS011;15046;50.930;13.334;2023-07-31T01:56:26;7.93;;;2.33;;
27632;SDS011;15046;50.930;13.334;2023-07-31T01:58:52;5.15;;;1.67;;
27632;SDS011;15046;50.930;13.334;2023-07-31T02:01:17;6.18;;;2.17;;
27632;SDS011;15046;50.930;13.334;2023-07-31T02:03:43;6.55;;;2.45;;
27632;SDS011;15046;50.930;13.334;2023-07-31T02:06:09;6.60;;;1.90;;
27632;SDS011;15046;50.930;13.334;2023-07-31T02:08:35;9.70;;;3.35;;
27632;SDS011;15046;50.930;13.334;2023-07-31T02:11:01;6.05;;;2.20;;
27632;SDS011;15046;50.930;13.334;2023-07-31T02:13:26;6.63;;;2.30;;
27632;SDS011;15046;50.930;13.334;2023-07-31T02:15:52;9.43;;;2.13;;
27632;SDS011;15046;50.930;13.334;2023-07-31T02:18:18;5.70;;;2.10;;
27632;SDS011;15046;50.930;13.334;2023-07-31T02:20:48;8.20;;;2.15;;
27632;SDS011;15046;50.930;13.334;2023-07-31T02:23:20;8.70;;;2.83;;
27632;SDS011;15046;50.930;13.334;2023-07-31T02:25:47;6.57;;;2.00;;
27632;SDS011;15046;50.930;13.334;2023-07-31T02:28:13;6.32;;;1.90;;
27632;SDS011;15046;50.930;13.334;2023-07-31T02:30:39;9.63;;;2.28;;
27632;SDS011;15046;50.930;13.334;2023-07-31T02:33:05;7.90;;;2.35;;
27632;SDS011;15046;50.930;13.334;2023-07-31T02:35:31;7.00;;;2.05;;
27632;SDS011;15046;50.930;13.334;2023-07-31T02:37:57;9.05;;;2.40;;
27632;SDS011;15046;50.930;13.334;2023-07-31T02:40:22;4.97;;;2.20;;
27632;SDS011;15046;50.930;13.334;2023-07-31T02:42:48;6.30;;;2.10;;
27632;SDS011;15046;50.930;13.334;2023-07-31T02:45:14;8.30;;;2.67;;
27632;SDS011;15046;50.930;13.334;2023-07-31T02:47:40;6.43;;;2.38;;
27632;SDS011;15046;50.930;13.334;2023-07-31T02:50:06;5.32;;;1.95;;
27632;SDS011;15046;50.930;13.334;2023-07-31T02:52:32;5.28;;;1.75;;
27632;SDS011;15046;50.930;13.334;2023-07-31T02:54:58;5.05;;;2.22;;
27632;SDS011;15046;50.930;13.334;2023-07-31T02:57:24;6.63;;;2.00;;
27632;SDS011;15046;50.930;13.334;2023-07-31T02:59:49;10.90;;;2.78;;
27632;SDS011;15046;50.930;13.334;2023-07-31T03:02:15;7.72;;;2.75;;
27632;SDS011;15046;50.930;13.334;2023-07-31T03:04:41;8.57;;;2.55;;
27632;SDS011;15046;50.930;13.334;2023-07-31T03:07:07;7.57;;;3.17;;
27632;SDS011;15046;50.930;13.334;2023-07-31T03:09:33;6.63;;;3.20;;
27632;SDS011;15046;50.930;13.334;2023-07-31T03:11:59;8.13;;;3.05;;
27632;SDS011;15046;50.930;13.334;2023-07-31T03:14:24;9.75;;;3.25;;
27632;SDS011;15046;50.930;13.334;2023-07-31T03:16:51;8.52;;;3.10;;
27632;SDS011;15046;50.930;13.334;2023-07-31T03:19:18;10.40;;;4.38;;
27632;SDS011;15046;50.930;13.334;2023-07-31T03:21:44;9.00;;;3.22;;
27632;SDS011;15046;50.930;13.334;2023-07-31T03:24:10;8.30;;;3.85;;
27632;SDS011;15046;50.930;13.334;2023-07-31T03:26:37;16.10;;;4.75;;
27632;SDS011;15046;50.930;13.334;2023-07-31T03:29:06;9.15;;;3.65;;
27632;SDS011;15046;50.930;13.334;2023-07-31T03:31:32;8.65;;;4.43;;
27632;SDS011;15046;50.930;13.334;2023-07-31T03:33:58;7.97;;;3.50;;
27632;SDS011;15046;50.930;13.334;2023-07-31T03:36:24;10.82;;;4.55;;
27632;SDS011;15046;50.930;13.334;2023-07-31T03:38:51;11.75;;;4.68;;
27632;SDS011;15046;50.930;13.334;2023-07-31T03:41:17;11.20;;;5.43;;
27632;SDS011;15046;50.930;13.334;2023-07-31T03:43:43;10.38;;;5.28;;
27632;SDS011;15046;50.930;13.334;2023-07-31T03:46:10;13.95;;;5.20;;
27632;SDS011;15046;50.930;13.334;2023-07-31T03:48:36;10.32;;;4.78;;
27632;SDS011;15046;50.930;13.334;2023-07-31T03:51:02;16.58;;;4.95;;
27632;SDS011;15046;50.930;13.334;2023-07-31T03:53:28;13.02;;;5.00;;
27632;SDS011;15046;50.930;13.334;2023-07-31T03:55:54;13.05;;;5.45;;
27632;SDS011;15046;50.930;13.334;2023-07-31T03:58:20;9.13;;;5.40;;
27632;SDS011;15046;50.930;13.334;2023-07-31T04:00:46;9.70;;;4.75;;
27632;SDS011;15046;50.930;13.334;2023-07-31T04:03:12;10.43;;;4.35;;
27632;SDS011;15046;50.930;13.334;2023-07-31T04:05:38;10.88;;;5.00;;
27632;SDS011;15046;50.930;13.334;2023-07-31T04:08:05;13.45;;;5.25;;
27632;SDS011;15046;50.930;13.334;2023-07-31T04:10:30;12.65;;;5.00;;
27632;SDS011;15046;50.930;13.334;2023-07-31T04:12:58;9.70;;;5.82;;
27632;SDS011;15046;50.930;13.334;2023-07-31T04:15:25;10.40;;;5.25;;
27632;SDS011;15046;50.930;13.334;2023-07-31T04:17:51;13.13;;;4.90;;
27632;SDS011;15046;50.930;13.334;2023-07-31T04:20:17;13.18;;;5.50;;
27632;SDS011;15046;50.930;13.334;2023-07-31T04:22:43;11.52;;;5.60;;
27632;SDS011;15046;50.930;13.334;2023-07-31T04:25:09;12.98;;;6.07;;
27632;SDS011;15046;50.930;13.334;2023-07-31T04:27:34;10.05;;;5.22;;
27632;SDS011;15046;50.930;13.334;2023-07-31T04:30:00;12.75;;;5.80;;
27632;SDS011;15046;50.930;13.334;2023-07-31T04:32:26;10.30;;;5.32;;
27632;SDS011;15046;50.930;13.334;2023-07-31T04:34:52;11.00;;;4.80;;
27632;SDS011;15046;50.930;13.334;2023-07-31T04:37:18;9.27;;;5.00;;
27632;SDS011;15046;50.930;13.334;2023-07-31T04:39:44;16.48;;;4.85;;
27632;SDS011;15046;50.930;13.334;2023-07-31T04:42:09;11.77;;;5.82;;
27632;SDS011;15046;50.930;13.334;2023-07-31T04:44:35;12.10;;;5.28;;
27632;SDS011;15046;50.930;13.334;2023-07-31T04:47:01;9.35;;;4.70;;
27632;SDS011;15046;50.930;13.334;2023-07-31T04:49:27;13.23;;;4.45;;
27632;SDS011;15046;50.930;13.334;2023-07-31T04:51:53;8.07;;;4.00;;
27632;SDS011;15046;50.930;13.334;2023-07-31T04:54:19;15.65;;;5.45;;
27632;SDS011;15046;50.930;13.334;2023-07-31T04:56:46;9.77;;;4.43;;
27632;SDS011;15046;50.930;13.334;2023-07-31T04:59:12;9.85;;;4.10;;
27632;SDS011;15046;50.930;13.334;2023-07-31T05:01:38;11.05;;;4.78;;
27632;SDS011;15046;50.930;13.334;2023-07-31T05:04:04;10.30;;;4.45;;
27632;SDS011;15046;50.930;13.334;2023-07-31T05:06:29;10.82;;;4.85;;
27632;SDS011;15046;50.930;13.334;2023-07-31T05:08:55;10.48;;;4.40;;
27632;SDS011;15046;50.930;13.334;2023-07-31T05:11:21;9.60;;;4.63;;
27632;SDS011;15046;50.930;13.334;2023-07-31T05:13:47;9.85;;;4.10;;
27632;SDS011;15046;50.930;13.334;2023-07-31T05:16:12;9.93;;;4.80;;
27632;SDS011;15046;50.930;13.334;2023-07-31T05:18:38;11.75;;;5.15;;
27632;SDS011;15046;50.930;13.334;2023-07-31T05:21:04;7.25;;;4.25;;
27632;SDS011;15046;50.930;13.334;2023-07-31T05:23:30;10.27;;;3.90;;
27632;SDS011;15046;50.930;13.334;2023-07-31T05:26:07;7.82;;;3.85;;
27632;SDS011;15046;50.930;13.334;2023-07-31T05:28:34;12.52;;;4.43;;
27632;SDS011;15046;50.930;13.334;2023-07-31T05:31:01;7.88;;;3.90;;
27632;SDS011;15046;50.930;13.334;2023-07-31T05:33:28;10.95;;;4.28;;
27632;SDS011;15046;50.930;13.334;2023-07-31T05:35:54;12.30;;;4.07;;
27632;SDS011;15046;50.930;13.334;2023-07-31T05:38:20;11.70;;;4.60;;
27632;SDS011;15046;50.930;13.334;2023-07-31T05:40:46;11.00;;;4.68;;
27632;SDS011;15046;50.930;13.334;2023-07-31T05:43:12;9.40;;;4.82;;
27632;SDS011;15046;50.930;13.334;2023-07-31T05:45:39;8.15;;;3.80;;
27632;SDS011;15046;50.930;13.334;2023-07-31T05:48:05;10.00;;;4.43;;
27632;SDS011;15046;50.930;13.334;2023-07-31T05:50:31;9.60;;;4.53;;
27632;SDS011;15046;50.930;13.334;2023-07-31T05:52:57;7.60;;;3.95;;
27632;SDS011;15046;50.930;13.334;2023-07-31T05:55:23;10.00;;;4.38;;
27632;SDS011;15046;50.930;13.334;2023-07-31T05:57:52;11.15;;;4.28;;
27632;SDS011;15046;50.930;13.334;2023-07-31T06:00:18;10.88;;;4.53;;
27632;SDS011;15046;50.930;13.334;2023-07-31T06:02:45;7.47;;;3.70;;
27632;SDS011;15046;50.930;13.334;2023-07-31T06:05:12;6.63;;;3.88;;
27632;SDS011;15046;50.930;13.334;2023-07-31T06:07:38;10.82;;;4.07;;
27632;SDS011;15046;50.930;13.334;2023-07-31T06:10:04;8.93;;;3.97;;
27632;SDS011;15046;50.930;13.334;2023-07-31T06:12:33;8.32;;;4.43;;
27632;SDS011;15046;50.930;13.334;2023-07-31T06:14:59;8.43;;;3.57;;
27632;SDS011;15046;50.930;13.334;2023-07-31T06:17:26;10.65;;;3.72;;
27632;SDS011;15046;50.930;13.334;2023-07-31T06:19:52;9.63;;;4.35;;
27632;SDS011;15046;50.930;13.334;2023-07-31T06:22:18;9.95;;;4.32;;
27632;SDS011;15046;50.930;13.334;2023-07-31T06:24:44;8.93;;;4.03;;
27632;SDS011;15046;50.930;13.334;2023-07-31T06:27:10;12.13;;;3.58;;
27632;SDS011;15046;50.930;13.334;2023-07-31T06:29:36;9.80;;;4.00;;
27632;SDS011;15046;50.930;13.334;2023-07-31T06:32:02;8.95;;;3.78;;
27632;SDS011;15046;50.930;13.334;2023-07-31T06:34:28;9.50;;;3.97;;
27632;SDS011;15046;50.930;13.334;2023-07-31T06:36:55;7.93;;;3.20;;
27632;SDS011;15046;50.930;13.334;2023-07-31T06:39:23;10.80;;;3.38;;
27632;SDS011;15046;50.930;13.334;2023-07-31T06:41:49;12.18;;;3.78;;
27632;SDS011;15046;50.930;13.334;2023-07-31T06:44:15;8.57;;;3.15;;
27632;SDS011;15046;50.930;13.334;2023-07-31T06:46:42;7.75;;;3.55;;
27632;SDS011;15046;50.930;13.334;2023-07-31T06:49:10;8.55;;;3.78;;
27632;SDS011;15046;50.930;13.334;2023-07-31T06:51:36;7.97;;;3.42;;
27632;SDS011;15046;50.930;13.334;2023-07-31T06:54:03;11.18;;;3.35;;
27632;SDS011;15046;50.930;13.334;2023-07-31T06:56:29;6.18;;;3.20;;
27632;SDS011;15046;50.930;13.334;2023-07-31T06:58:55;7.55;;;2.88;;
27632;SDS011;15046;50.930;13.334;2023-07-31T07:01:21;8.52;;;3.50;;
27632;SDS011;15046;50.930;13.334;2023-07-31T07:03:47;11.30;;;3.50;;
27632;SDS011;15046;50.930;13.334;2023-07-31T07:06:15;8.30;;;3.40;;
27632;SDS011;15046;50.930;13.334;2023-07-31T07:08:42;7.78;;;3.70;;
27632;SDS011;15046;50.930;13.334;2023-07-31T07:11:07;7.20;;;3.10;;
27632;SDS011;15046;50.930;13.334;2023-07-31T07:13:33;8.52;;;3.22;;
27632;SDS011;15046;50.930;13.334;2023-07-31T07:15:59;6.70;;;3.05;;
27632;SDS011;15046;50.930;13.334;2023-07-31T07:18:25;10.63;;;2.78;;
27632;SDS011;15046;50.930;13.334;2023-07-31T07:20:51;6.13;;;3.08;;
27632;SDS011;15046;50.930;13.334;2023-07-31T07:23:18;6.25;;;3.10;;
27632;SDS011;15046;50.930;13.334;2023-07-31T07:25:45;7.28;;;3.22;;
27632;SDS011;15046;50.930;13.334;2023-07-31T07:28:12;9.57;;;4.47;;
27632;SDS011;15046;50.930;13.334;2023-07-31T07:30:38;7.20;;;3.17;;
27632;SDS011;15046;50.930;13.334;2023-07-31T07:33:04;7.32;;;2.88;;
27632;SDS011;15046;50.930;13.334;2023-07-31T07:35:30;8.40;;;3.40;;
27632;SDS011;15046;50.930;13.334;2023-07-31T07:37:59;9.77;;;3.55;;
27632;SDS011;15046;50.930;13.334;2023-07-31T07:40:26;8.50;;;3.35;;
27632;SDS011;15046;50.930;13.334;2023-07-31T07:42:51;8.80;;;2.95;;
27632;SDS011;15046;50.930;13.334;2023-07-31T07:45:17;11.15;;;3.38;;
27632;SDS011;15046;50.930;13.334;2023-07-31T07:47:43;9.57;;;3.17;;
27632;SDS011;15046;50.930;13.334;2023-07-31T07:50:09;9.63;;;3.80;;
27632;SDS011;15046;50.930;13.334;2023-07-31T07:52:35;6.78;;;3.15;;
27632;SDS011;15046;50.930;13.334;2023-07-31T07:55:01;8.32;;;3.33;;
27632;SDS011;15046;50.930;13.334;2023-07-31T07:57:28;9.20;;;3.65;;
27632;SDS011;15046;50.930;13.334;2023-07-31T07:59:54;10.55;;;3.03;;
27632;SDS011;15046;50.930;13.334;2023-07-31T08:02:20;10.35;;;3.88;;
27632;SDS011;15046;50.930;13.334;2023-07-31T08:04:47;7.80;;;3.17;;
27632;SDS011;15046;50.930;13.334;2023-07-31T08:07:12;6.68;;;3.33;;
27632;SDS011;15046;50.930;13.334;2023-07-31T08:09:38;8.43;;;3.83;;
27632;SDS011;15046;50.930;13.334;2023-07-31T08:12:05;6.35;;;2.47;;
27632;SDS011;15046;50.930;13.334;2023-07-31T08:14:31;7.50;;;3.20;;
27632;SDS011;15046;50.930;13.334;2023-07-31T08:16:57;9.60;;;3.40;;
27632;SDS011;15046;50.930;13.334;2023-07-31T08:19:23;7.82;;;3.15;;
27632;SDS011;15046;50.930;13.334;2023-07-31T08:21:49;6.95;;;3.22;;
27632;SDS011;15046;50.930;13.334;2023-07-31T08:24:15;11.18;;;3.15;;
27632;SDS011;15046;50.930;13.334;2023-07-31T08:26:40;8.35;;;3.60;;
27632;SDS011;15046;50.930;13.334;2023-07-31T08:29:07;9.10;;;3.80;;
27632;SDS011;15046;50.930;13.334;2023-07-31T08:31:32;6.70;;;2.83;;
27632;SDS011;15046;50.930;13.334;2023-07-31T08:33:59;8.35;;;3.10;;
27632;SDS011;15046;50.930;13.334;2023-07-31T08:36:25;8.27;;;3.00;;
27632;SDS011;15046;50.930;13.334;2023-07-31T08:38:51;5.63;;;2.47;;
27632;SDS011;15046;50.930;13.334;2023-07-31T08:41:17;9.00;;;3.50;;
27632;SDS011;15046;50.930;13.334;2023-07-31T08:43:44;8.65;;;3.08;;
27632;SDS011;15046;50.930;13.334;2023-07-31T08:46:14;9.05;;;3.63;;
27632;SDS011;15046;50.930;13.334;2023-07-31T08:48:41;7.90;;;3.15;;
27632;SDS011;15046;50.930;13.334;2023-07-31T08:51:09;9.75;;;3.88;;
27632;SDS011;15046;50.930;13.334;2023-07-31T08:53:35;7.00;;;2.80;;
27632;SDS011;15046;50.930;13.334;2023-07-31T08:56:02;7.20;;;3.17;;
27632;SDS011;15046;50.930;13.334;2023-07-31T08:58:30;8.57;;;3.00;;
27632;SDS011;15046;50.930;13.334;2023-07-31T09:00:57;9.80;;;3.17;;
27632;SDS011;15046;50.930;13.334;2023-07-31T09:03:26;5.70;;;2.83;;
27632;SDS011;15046;50.930;13.334;2023-07-31T09:05:53;6.30;;;2.75;;
27632;SDS011;15046;50.930;13.334;2023-07-31T09:08:23;4.95;;;2.92;;
27632;SDS011;15046;50.930;13.334;2023-07-31T09:10:50;8.02;;;3.72;;
27632;SDS011;15046;50.930;13.334;2023-07-31T09:13:16;7.32;;;3.10;;
27632;SDS011;15046;50.930;13.334;2023-07-31T09:15:43;7.82;;;3.25;;
27632;SDS011;15046;50.930;13.334;2023-07-31T09:18:10;7.88;;;3.08;;
27632;SDS011;15046;50.930;13.334;2023-07-31T09:20:36;5.90;;;2.50;;
27632;SDS011;15046;50.930;13.334;2023-07-31T09:23:07;5.53;;;2.72;;
27632;SDS011;15046;50.930;13.334;2023-07-31T09:25:41;7.20;;;2.58;;
27632;SDS011;15046;50.930;13.334;2023-07-31T09:28:10;10.38;;;2.95;;
27632;SDS011;15046;50.930;13.334;2023-07-31T09:31:10;8.50;;;3.53;;
27632;SDS011;15046;50.930;13.334;2023-07-31T09:33:28;5.57;;;2.55;;
27632;SDS011;15046;50.930;13.334;2023-07-31T09:35:56;9.13;;;3.20;;
27632;SDS011;15046;50.930;13.334;2023-07-31T09:38:25;6.65;;;3.05;;
27632;SDS011;15046;50.930;13.334;2023-07-31T09:40:50;13.57;;;3.92;;
27632;SDS011;15046;50.930;13.334;2023-07-31T09:43:17;5.63;;;2.70;;
27632;SDS011;15046;50.930;13.334;2023-07-31T09:45:44;7.00;;;3.00;;
27632;SDS011;15046;50.930;13.334;2023-07-31T09:48:15;7.28;;;3.15;;
27632;SDS011;15046;50.930;13.334;2023-07-31T09:50:43;7.22;;;3.30;;
27632;SDS011;15046;50.930;13.334;2023-07-31T09:53:10;6.78;;;3.00;;
27632;SDS011;15046;50.930;13.334;2023-07-31T09:55:37;8.32;;;2.60;;
27632;SDS011;15046;50.930;13.334;2023-07-31T09:58:04;5.88;;;2.97;;
27632;SDS011;15046;50.930;13.334;2023-07-31T10:00:32;7.57;;;2.95;;
27632;SDS011;15046;50.930;13.334;2023-07-31T10:02:58;5.00;;;3.00;;
27632;SDS011;15046;50.930;13.334;2023-07-31T10:08:04;4.90;;;2.60;;
27632;SDS011;15046;50.930;13.334;2023-07-31T10:10:32;6.82;;;2.83;;
27632;SDS011;15046;50.930;13.334;2023-07-31T10:12:59;6.80;;;3.05;;
27632;SDS011;15046;50.930;13.334;2023-07-31T10:15:26;5.95;;;2.78;;
27632;SDS011;15046;50.930;13.334;2023-07-31T10:17:53;6.00;;;2.75;;
27632;SDS011;15046;50.930;13.334;2023-07-31T10:20:20;6.35;;;2.75;;
27632;SDS011;15046;50.930;13.334;2023-07-31T10:22:46;5.38;;;2.65;;
27632;SDS011;15046;50.930;13.334;2023-07-31T10:25:15;6.05;;;2.65;;
27632;SDS011;15046;50.930;13.334;2023-07-31T10:27:42;7.38;;;2.70;;
27632;SDS011;15046;50.930;13.334;2023-07-31T10:30:08;8.40;;;3.13;;
27632;SDS011;15046;50.930;13.334;2023-07-31T10:32:38;7.70;;;3.03;;
27632;SDS011;15046;50.930;13.334;2023-07-31T10:35:05;6.72;;;2.88;;
27632;SDS011;15046;50.930;13.334;2023-07-31T10:37:38;5.20;;;2.67;;
27632;SDS011;15046;50.930;13.334;2023-07-31T10:40:05;7.13;;;2.80;;
27632;SDS011;15046;50.930;13.334;2023-07-31T10:45:05;6.78;;;2.25;;
27632;SDS011;15046;50.930;13.334;2023-07-31T10:48:17;5.25;;;2.45;;
27632;SDS011;15046;50.930;13.334;2023-07-31T10:50:25;7.45;;;2.75;;
27632;SDS011;15046;50.930;13.334;2023-07-31T10:52:52;5.45;;;2.33;;
27632;SDS011;15046;50.930;13.334;2023-07-31T10:55:32;6.05;;;2.58;;
27632;SDS011;15046;50.930;13.334;2023-07-31T10:58:11;4.80;;;2.15;;
27632;SDS011;15046;50.930;13.334;2023-07-31T11:00:41;6.45;;;2.40;;
27632;SDS011;15046;50.930;13.334;2023-07-31T11:03:18;4.60;;;2.33;;
27632;SDS011;15046;50.930;13.334;2023-07-31T11:06:00;5.68;;;2.63;;
27632;SDS011;15046;50.930;13.334;2023-07-31T11:08:29;8.20;;;3.00;;
27632;SDS011;15046;50.930;13.334;2023-07-31T11:13:28;4.80;;;2.40;;
27632;SDS011;15046;50.930;13.334;2023-07-31T11:15:54;6.03;;;2.70;;
27632;SDS011;15046;50.930;13.334;2023-07-31T11:18:20;6.53;;;2.42;;
27632;SDS011;15046;50.930;13.334;2023-07-31T11:20:47;5.38;;;2.42;;
27632;SDS011;15046;50.930;13.334;2023-07-31T11:23:15;5.97;;;2.60;;
27632;SDS011;15046;50.930;13.334;2023-07-31T11:25:42;5.15;;;2.50;;
27632;SDS011;15046;50.930;13.334;2023-07-31T11:28:11;5.13;;;2.30;;
27632;SDS011;15046;50.930;13.334;2023-07-31T11:33:07;5.15;;;2.30;;
27632;SDS011;15046;50.930;13.334;2023-07-31T11:35:36;4.25;;;2.58;;
27632;SDS011;15046;50.930;13.334;2023-07-31T11:38:10;6.55;;;2.10;;
27632;SDS011;15046;50.930;13.334;2023-07-31T11:40:42;6.60;;;1.92;;
27632;SDS011;15046;50.930;13.334;2023-07-31T11:43:09;4.07;;;2.03;;
27632;SDS011;15046;50.930;13.334;2023-07-31T11:45:36;4.10;;;2.15;;
27632;SDS011;15046;50.930;13.334;2023-07-31T11:48:03;5.95;;;2.00;;
27632;SDS011;15046;50.930;13.334;2023-07-31T11:50:29;3.25;;;1.60;;
27632;SDS011;15046;50.930;13.334;2023-07-31T11:53:04;4.97;;;2.05;;
27632;SDS011;15046;50.930;13.334;2023-07-31T11:55:34;4.65;;;1.95;;
27632;SDS011;15046;50.930;13.334;2023-07-31T11:58:00;6.25;;;2.65;;
27632;SDS011;15046;50.930;13.334;2023-07-31T12:00:26;4.57;;;2.33;;
27632;SDS011;15046;50.930;13.334;2023-07-31T12:02:54;5.25;;;2.28;;
27632;SDS011;15046;50.930;13.334;2023-07-31T12:05:20;3.85;;;2.13;;
27632;SDS011;15046;50.930;13.334;2023-07-31T12:10:25;6.22;;;2.67;;
27632;SDS011;15046;50.930;13.334;2023-07-31T12:13:04;5.88;;;2.47;;
27632;SDS011;15046;50.930;13.334;2023-07-31T12:18:06;4.63;;;2.13;;
27632;SDS011;15046;50.930;13.334;2023-07-31T12:20:40;7.10;;;2.30;;
27632;SDS011;15046;50.930;13.334;2023-07-31T12:23:14;8.52;;;2.72;;
27632;SDS011;15046;50.930;13.334;2023-07-31T12:25:59;5.15;;;2.30;;
27632;SDS011;15046;50.930;13.334;2023-07-31T12:28:26;7.78;;;2.58;;
27632;SDS011;15046;50.930;13.334;2023-07-31T12:30:52;5.60;;;2.35;;
27632;SDS011;15046;50.930;13.334;2023-07-31T12:33:24;5.40;;;2.42;;
27632;SDS011;15046;50.930;13.334;2023-07-31T12:35:55;6.55;;;2.58;;
27632;SDS011;15046;50.930;13.334;2023-07-31T12:38:21;5.25;;;2.28;;
27632;SDS011;15046;50.930;13.334;2023-07-31T12:40:47;7.88;;;2.50;;
27632;SDS011;15046;50.930;13.334;2023-07-31T12:43:13;8.93;;;2.58;;
27632;SDS011;15046;50.930;13.334;2023-07-31T12:45:40;4.78;;;2.30;;
27632;SDS011;15046;50.930;13.334;2023-07-31T12:48:06;4.75;;;2.42;;
27632;SDS011;15046;50.930;13.334;2023-07-31T12:50:31;6.97;;;2.67;;
27632;SDS011;15046;50.930;13.334;2023-07-31T12:52:57;5.18;;;2.15;;
27632;SDS011;15046;50.930;13.334;2023-07-31T12:55:23;4.15;;;1.92;;
27632;SDS011;15046;50.930;13.334;2023-07-31T12:57:49;6.22;;;2.78;;
27632;SDS011;15046;50.930;13.334;2023-07-31T13:00:15;7.35;;;2.80;;
27632;SDS011;15046;50.930;13.334;2023-07-31T13:02:42;4.95;;;2.47;;
27632;SDS011;15046;50.930;13.334;2023-07-31T13:05:08;5.47;;;2.30;;
27632;SDS011;15046;50.930;13.334;2023-07-31T13:07:34;5.18;;;2.85;;
27632;SDS011;15046;50.930;13.334;2023-07-31T13:10:00;3.80;;;2.30;;
27632;SDS011;15046;50.930;13.334;2023-07-31T13:12:25;6.30;;;2.38;;
27632;SDS011;15046;50.930;13.334;2023-07-31T13:14:51;4.28;;;2.45;;
27632;SDS011;15046;50.930;13.334;2023-07-31T13:17:17;5.93;;;2.45;;
27632;SDS011;15046;50.930;13.334;2023-07-31T13:19:44;4.72;;;2.30;;
27632;SDS011;15046;50.930;13.334;2023-07-31T13:22:09;5.57;;;2.30;;
27632;SDS011;15046;50.930;13.334;2023-07-31T13:24:36;5.00;;;2.22;;
27632;SDS011;15046;50.930;13.334;2023-07-31T13:27:02;8.00;;;2.30;;
27632;SDS011;15046;50.930;13.334;2023-07-31T13:29:29;7.13;;;2.50;;
27632;SDS011;15046;50.930;13.334;2023-07-31T13:31:55;5.18;;;2.50;;
27632;SDS011;15046;50.930;13.334;2023-07-31T13:34:21;6.93;;;2.80;;
27632;SDS011;15046;50.930;13.334;2023-07-31T13:36:47;6.20;;;2.38;;
27632;SDS011;15046;50.930;13.334;2023-07-31T13:39:12;5.60;;;2.95;;
27632;SDS011;15046;50.930;13.334;2023-07-31T13:41:38;5.68;;;2.50;;
27632;SDS011;15046;50.930;13.334;2023-07-31T13:44:04;9.77;;;3.22;;
27632;SDS011;15046;50.930;13.334;2023-07-31T13:46:30;5.55;;;2.38;;
27632;SDS011;15046;50.930;13.334;2023-07-31T13:48:57;4.70;;;2.25;;
27632;SDS011;15046;50.930;13.334;2023-07-31T13:51:26;7.82;;;2.70;;
27632;SDS011;15046;50.930;13.334;2023-07-31T13:53:53;5.75;;;2.40;;
27632;SDS011;15046;50.930;13.334;2023-07-31T13:56:19;7.93;;;2.40;;
27632;SDS011;15046;50.930;13.334;2023-07-31T13:58:45;6.15;;;2.53;;
27632;SDS011;15046;50.930;13.334;2023-07-31T14:01:10;6.20;;;2.53;;
27632;SDS011;15046;50.930;13.334;2023-07-31T14:03:36;4.30;;;2.47;;
27632;SDS011;15046;50.930;13.334;2023-07-31T14:06:02;4.88;;;2.45;;
27632;SDS011;15046;50.930;13.334;2023-07-31T14:08:28;7.75;;;2.90;;
27632;SDS011;15046;50.930;13.334;2023-07-31T14:10:55;5.68;;;2.60;;
27632;SDS011;15046;50.930;13.334;2023-07-31T14:13:20;6.80;;;2.80;;
27632;SDS011;15046;50.930;13.334;2023-07-31T14:15:46;6.05;;;2.72;;
27632;SDS011;15046;50.930;13.334;2023-07-31T14:18:12;4.20;;;2.28;;
27632;SDS011;15046;50.930;13.334;2023-07-31T14:20:38;5.65;;;2.47;;
27632;SDS011;15046;50.930;13.334;2023-07-31T14:23:04;6.43;;;2.60;;
27632;SDS011;15046;50.930;13.334;2023-07-31T14:25:30;7.50;;;2.90;;
27632;SDS011;15046;50.930;13.334;2023-07-31T14:27:56;4.82;;;2.20;;
27632;SDS011;15046;50.930;13.334;2023-07-31T14:30:21;7.35;;;2.60;;
27632;SDS011;15046;50.930;13.334;2023-07-31T14:32:48;5.68;;;2.50;;
27632;SDS011;15046;50.930;13.334;2023-07-31T14:35:14;4.72;;;2.22;;
27632;SDS011;15046;50.930;13.334;2023-07-31T14:37:40;5.53;;;2.97;;
27632;SDS011;15046;50.930;13.334;2023-07-31T14:40:08;6.78;;;2.97;;
27632;SDS011;15046;50.930;13.334;2023-07-31T14:42:35;4.07;;;2.28;;
27632;SDS011;15046;50.930;13.334;2023-07-31T14:45:01;5.00;;;2.60;;
27632;SDS011;15046;50.930;13.334;2023-07-31T14:47:28;4.53;;;2.55;;
27632;SDS011;15046;50.930;13.334;2023-07-31T14:49:56;6.45;;;2.88;;
27632;SDS011;15046;50.930;13.334;2023-07-31T14:52:26;5.60;;;2.30;;